Time;durP1;ratioP1;P1;durP2;ratioP2;P2;SDS_P1;SDS_P2;PMS_P1;PMS_P2;Temp;Humidity;BMP_temperature;BMP_pressure;BME280_temperature;BME280_humidity;BME280_pressure;Samples;Min_cycle;Max_cycle;Signal;HPM_P1;HPM_P2
2023/03/18 00:00:45;;;;;;;20.70;12.03;;;;;;;-145.18;100.00;46697.50;4992820;28;20744;-67
2023/03/18 00:03:11;;;;;;;21.43;12.50;;;;;;;-145.18;100.00;46701.41;4979381;28;20380;-67
2023/03/18 00:05:37;;;;;;;19.53;12.20;;;;;;;-145.18;100.00;46695.56;4979339;28;20035;-67
2023/03/18 00:08:04;;;;;;;20.13;12.60;;;;;;;-145.18;100.00;46703.38;4991902;28;20033;-67
2023/03/18 00:10:31;;;;;;;22.20;12.73;;;;;;;-145.18;100.00;46705.31;4992788;28;20057;-67
2023/03/18 00:12:58;;;;;;;21.07;13.47;;;;;;;-145.18;100.00;46701.41;4991696;28;20034;-67
2023/03/18 00:15:24;;;;;;;17.90;12.73;;;;;;;-145.18;100.00;46703.38;4992162;28;20042;-67
2023/03/18 00:17:49;;;;;;;21.63;12.97;;;;;;;-145.18;100.00;46699.47;4992226;28;20295;-67
2023/03/18 00:20:17;;;;;;;19.67;12.80;;;;;;;-145.18;100.00;46699.47;4992386;28;20078;-67
2023/03/18 00:22:44;;;;;;;23.03;13.80;;;;;;;-145.18;100.00;46699.47;4992479;28;20029;-67
2023/03/18 00:25:11;;;;;;;24.50;13.50;;;;;;;-145.18;100.00;46695.56;4992119;28;20276;-67
2023/03/18 00:27:38;;;;;;;23.17;13.73;;;;;;;-145.18;100.00;46703.38;4981088;28;20372;-67
2023/03/18 00:30:06;;;;;;;25.13;14.10;;;;;;;-145.18;100.00;46697.50;4972594;28;20336;-67
2023/03/18 00:32:31;;;;;;;20.77;13.83;;;;;;;-145.18;100.00;46699.47;4972633;28;20027;-67
2023/03/18 00:34:57;;;;;;;21.43;15.23;;;;;;;-145.18;100.00;46699.47;4972498;28;20027;-67
2023/03/18 00:37:29;;;;;;;25.00;15.60;;;;;;;-145.18;100.00;46701.41;4972660;28;20514;-67
2023/03/18 00:40:03;;;;;;;27.03;15.57;;;;;;;-145.18;100.00;46701.41;4972628;28;20035;-67
2023/03/18 00:42:35;;;;;;;23.93;14.87;;;;;;;-145.18;100.00;46699.47;4972542;28;20303;-67
2023/03/18 00:45:03;;;;;;;23.10;15.37;;;;;;;-145.18;100.00;46697.50;4972299;28;20272;-67
2023/03/18 00:47:29;;;;;;;23.87;14.53;;;;;;;-145.18;100.00;46701.41;4955308;28;20368;-67
2023/03/18 00:49:54;;;;;;;25.07;15.40;;;;;;;-145.18;100.00;46695.56;4972428;28;20276;-67
2023/03/18 00:52:21;;;;;;;28.77;15.73;;;;;;;-145.18;100.00;46701.41;4954905;28;20034;-67
2023/03/18 00:54:47;;;;;;;26.20;14.93;;;;;;;-145.18;100.00;46693.59;4972545;28;20122;-67
2023/03/18 00:57:13;;;;;;;28.53;16.00;;;;;;;-145.18;100.00;46697.50;4989654;28;20339;-67
2023/03/18 00:59:39;;;;;;;25.30;16.17;;;;;;;-145.18;100.00;46699.47;4976542;28;20285;-67
2023/03/18 01:02:04;;;;;;;24.03;15.10;;;;;;;-145.18;100.00;46703.38;4971995;28;21063;-67
2023/03/18 01:04:30;;;;;;;26.23;15.87;;;;;;;-145.18;100.00;46707.28;4972079;28;20061;-67
2023/03/18 01:06:56;;;;;;;26.33;16.40;;;;;;;-145.18;100.00;46693.59;4971603;28;20073;-67
2023/03/18 01:09:22;;;;;;;20.50;14.57;;;;;;;-145.18;100.00;46697.50;4972215;28;20102;-67
2023/03/18 01:11:48;;;;;;;26.07;15.87;;;;;;;-145.18;100.00;46697.50;4971805;28;20443;-67
2023/03/18 01:14:13;;;;;;;24.17;14.93;;;;;;;-145.18;100.00;46695.56;4972210;28;20273;-67
2023/03/18 01:16:39;;;;;;;23.37;14.67;;;;;;;-145.18;100.00;46697.50;4972156;28;20029;-67
2023/03/18 01:19:05;;;;;;;24.57;16.17;;;;;;;-145.18;100.00;46697.50;4971432;28;20027;-67
2023/03/18 01:21:30;;;;;;;27.07;15.30;;;;;;;-145.18;100.00;46695.56;4971148;28;20483;-67
2023/03/18 01:23:56;;;;;;;22.73;14.97;;;;;;;-145.18;100.00;46699.47;4971878;28;20114;-67
2023/03/18 01:26:22;;;;;;;27.77;14.87;;;;;;;-145.18;100.00;46703.38;4971756;28;20121;-67
2023/03/18 01:28:48;;;;;;;23.93;14.90;;;;;;;-145.18;100.00;46697.50;4971596;28;20043;-67
2023/03/18 01:31:14;;;;;;;22.37;15.40;;;;;;;-145.18;100.00;46699.47;4971738;28;20276;-67
2023/03/18 01:33:40;;;;;;;32.13;16.43;;;;;;;-145.18;100.00;46695.56;4971834;28;20085;-67
2023/03/18 01:36:06;;;;;;;23.53;16.03;;;;;;;-145.18;100.00;46693.59;4987212;28;20375;-67
2023/03/18 01:38:32;;;;;;;24.80;13.80;;;;;;;-145.18;100.00;46701.41;4991034;28;20319;-67
2023/03/18 01:40:59;;;;;;;29.83;15.77;;;;;;;-145.18;100.00;46699.47;4988895;28;20113;-67
2023/03/18 01:43:29;;;;;;;24.87;15.10;;;;;;;-145.18;100.00;46697.50;4990940;28;20106;-67
2023/03/18 01:45:57;;;;;;;25.87;15.27;;;;;;;-145.18;100.00;46699.47;4990901;28;20037;-67
2023/03/18 01:48:28;;;;;;;23.13;14.33;;;;;;;-145.18;100.00;46701.41;4991083;28;20378;-67
2023/03/18 01:50:58;;;;;;;23.97;14.80;;;;;;;-145.18;100.00;46697.50;4990817;28;20256;-67
2023/03/18 01:53:28;;;;;;;25.70;15.00;;;;;;;-145.18;100.00;46697.50;4990574;28;20037;-67
2023/03/18 01:55:56;;;;;;;21.37;13.67;;;;;;;-145.18;100.00;46697.50;4973543;28;20300;-67
2023/03/18 01:58:33;;;;;;;23.87;13.23;;;;;;;-145.18;100.00;46697.50;4971315;28;20789;-67
2023/03/18 02:03:33;;;;;;;32.42;13.05;;;;;;;-145.18;100.00;46685.78;4716690;23;20708;-68
2023/03/18 02:06:00;;;;;;;21.43;13.23;;;;;;;-145.18;100.00;46674.06;5020650;28;20041;-69
2023/03/18 02:08:25;;;;;;;18.60;12.07;;;;;;;-145.18;100.00;46670.16;5029876;28;20034;-69
2023/03/18 02:10:52;;;;;;;22.83;11.83;;;;;;;-145.18;100.00;46677.97;5030183;28;20630;-69
2023/03/18 02:13:18;;;;;;;29.07;12.83;;;;;;;-145.18;100.00;46672.13;5029473;28;20113;-69
2023/03/18 02:16:01;;;;;;;22.50;11.47;;;;;;;-145.18;100.00;46668.22;5030126;28;20301;-68
2023/03/18 02:18:35;;;;;;;19.83;12.13;;;;;;;-145.18;100.00;46668.22;5029816;28;20254;-69
2023/03/18 02:21:30;;;;;;;24.43;13.00;;;;;;;-145.18;100.00;46674.06;5029894;28;20275;-69
2023/03/18 02:24:14;;;;;;;25.40;12.83;;;;;;;-145.18;100.00;46668.22;5029437;28;20262;-69
2023/03/18 02:26:52;;;;;;;28.53;12.17;;;;;;;-145.18;100.00;46670.16;5029959;28;20759;-69
2023/03/18 02:29:20;;;;;;;22.87;12.53;;;;;;;-145.18;100.00;46674.06;5030265;28;20274;-69
2023/03/18 02:31:46;;;;;;;20.27;12.50;;;;;;;-145.18;100.00;46681.88;5031617;28;20360;-69
2023/03/18 02:34:12;;;;;;;18.50;11.77;;;;;;;-145.18;100.00;46676.03;5033968;28;20270;-69
2023/03/18 02:36:38;;;;;;;21.17;12.60;;;;;;;-145.18;100.00;46666.25;5032980;28;20021;-69
2023/03/18 02:39:03;;;;;;;17.63;11.87;;;;;;;-145.18;100.00;46670.16;5033899;28;20762;-69
2023/03/18 02:41:32;;;;;;;18.90;12.77;;;;;;;-145.18;100.00;46666.25;5033824;28;20700;-69
2023/03/18 02:43:58;;;;;;;18.97;11.23;;;;;;;-145.18;100.00;46666.25;5033199;28;20037;-69
2023/03/18 02:46:52;;;;;;;20.47;12.63;;;;;;;-145.18;100.00;46668.22;5033882;28;20281;-69
2023/03/18 02:49:19;;;;;;;26.13;13.00;;;;;;;-145.18;100.00;46676.03;5033556;28;20053;-69
2023/03/18 02:51:45;;;;;;;22.67;12.20;;;;;;;-145.18;100.00;46670.16;5033253;28;20365;-69
2023/03/18 02:54:18;;;;;;;22.60;12.17;;;;;;;-145.18;100.00;46677.97;5033313;28;20282;-69
2023/03/18 02:56:43;;;;;;;22.30;12.87;;;;;;;-145.18;100.00;46677.97;5015724;28;20125;-69
2023/03/18 02:59:10;;;;;;;19.23;12.53;;;;;;;-145.18;100.00;46685.78;5033541;28;20029;-69
2023/03/18 03:01:37;;;;;;;22.23;12.23;;;;;;;-145.18;100.00;46695.56;5036779;28;20025;-69
2023/03/18 03:04:03;;;;;;;19.70;12.67;;;;;;;-145.18;100.00;46699.47;5053124;28;20045;-69
2023/03/18 03:06:29;;;;;;;21.53;12.90;;;;;;;-145.18;100.00;46701.41;5053379;28;20304;-69
2023/03/18 03:08:56;;;;;;;24.30;12.43;;;;;;;-145.18;100.00;46699.47;5052936;28;20294;-69
2023/03/18 03:11:21;;;;;;;17.23;11.80;;;;;;;-145.18;100.00;46705.31;5052982;28;20116;-69
2023/03/18 03:13:47;;;;;;;21.97;12.57;;;;;;;-145.18;100.00;46703.38;5052769;28;20806;-69
2023/03/18 03:16:14;;;;;;;19.67;12.17;;;;;;;-145.18;100.00;46697.50;5053180;28;20043;-69
2023/03/18 03:18:40;;;;;;;23.13;12.67;;;;;;;-145.18;100.00;46705.31;5052916;28;20107;-69
2023/03/18 03:21:07;;;;;;;28.30;13.37;;;;;;;-145.18;100.00;46701.41;5052994;28;20025;-69
2023/03/18 03:23:33;;;;;;;24.73;14.20;;;;;;;-145.18;100.00;46699.47;5052704;28;20293;-69
2023/03/18 03:25:59;;;;;;;20.50;12.63;;;;;;;-145.18;100.00;46697.50;5053054;28;20758;-69
2023/03/18 03:28:24;;;;;;;27.53;12.57;;;;;;;-145.18;100.00;46703.38;5052840;28;20282;-69
2023/03/18 03:30:49;;;;;;;26.03;14.37;;;;;;;-145.18;100.00;46695.56;5052761;28;20052;-69
2023/03/18 03:33:15;;;;;;;27.23;12.73;;;;;;;-145.18;100.00;46701.41;5052626;28;20021;-69
2023/03/18 03:35:41;;;;;;;19.63;12.60;;;;;;;-145.18;100.00;46701.41;5034704;28;20460;-69
2023/03/18 03:38:08;;;;;;;23.23;13.60;;;;;;;-145.18;100.00;46697.50;5052501;28;20041;-69
2023/03/18 03:40:33;;;;;;;23.27;12.70;;;;;;;-145.18;100.00;46697.50;5052581;28;20091;-69
2023/03/18 03:42:59;;;;;;;22.67;13.67;;;;;;;-145.18;100.00;46697.50;5051188;28;20286;-69
2023/03/18 03:45:24;;;;;;;28.30;13.70;;;;;;;-145.18;100.00;46695.56;5052424;28;20500;-69
2023/03/18 03:47:50;;;;;;;23.97;13.57;;;;;;;-145.18;100.00;46689.69;5052062;28;20485;-69
2023/03/18 03:50:16;;;;;;;24.47;13.83;;;;;;;-145.18;100.00;46689.69;5052599;28;20033;-69
2023/03/18 03:52:42;;;;;;;26.87;14.40;;;;;;;-145.18;100.00;46681.88;5051933;28;20076;-69
2023/03/18 03:55:12;;;;;;;24.83;13.80;;;;;;;-145.18;100.00;46685.78;5052418;28;20286;-69
2023/03/18 03:57:37;;;;;;;28.13;13.93;;;;;;;-145.18;100.00;46687.75;5051942;28;20555;-69
2023/03/18 04:00:06;;;;;;;26.00;13.40;;;;;;;-145.18;100.00;46687.75;5052454;28;20277;-69
2023/03/18 04:02:32;;;;;;;25.73;13.10;;;;;;;-145.18;100.00;46691.66;5051369;28;20489;-69
2023/03/18 04:04:57;;;;;;;30.70;13.83;;;;;;;-145.18;100.00;46679.94;5051956;28;20280;-69
2023/03/18 04:07:23;;;;;;;24.73;14.80;;;;;;;-145.18;100.00;46681.88;5052007;28;20037;-70
2023/03/18 04:09:49;;;;;;;21.97;13.00;;;;;;;-145.18;100.00;46676.03;5034371;28;20077;-69
2023/03/18 04:12:17;;;;;;;23.23;13.23;;;;;;;-145.18;100.00;46674.06;5051789;28;20132;-69
2023/03/18 04:14:42;;;;;;;26.47;14.53;;;;;;;-145.18;100.00;46672.13;5051872;28;20048;-69
2023/03/18 04:17:08;;;;;;;29.07;15.13;;;;;;;-145.18;100.00;46672.13;5051831;28;20270;-69
2023/03/18 04:19:33;;;;;;;26.17;13.70;;;;;;;-145.18;100.00;46672.13;5051809;28;20032;-69
2023/03/18 04:21:59;;;;;;;24.33;14.40;;;;;;;-145.18;100.00;46666.25;5033595;28;20040;-69
2023/03/18 04:24:25;;;;;;;27.03;13.87;;;;;;;-145.18;100.00;46662.34;5051977;28;20036;-69
2023/03/18 04:26:50;;;;;;;27.53;13.43;;;;;;;-145.18;100.00;46668.22;5051644;28;20111;-70
2023/03/18 04:29:15;;;;;;;25.00;14.37;;;;;;;-145.18;100.00;46674.06;5051693;28;20029;-69
2023/03/18 04:31:41;;;;;;;27.00;14.77;;;;;;;-145.18;100.00;46666.25;5051190;28;20037;-70
2023/03/18 04:34:06;;;;;;;21.33;13.83;;;;;;;-145.18;100.00;46670.16;5051489;28;20052;-70
2023/03/18 04:36:32;;;;;;;25.50;15.77;;;;;;;-145.18;100.00;46664.31;5051741;28;20452;-70
2023/03/18 04:38:58;;;;;;;30.53;15.43;;;;;;;-145.18;100.00;46662.34;5051356;28;20067;-70
2023/03/18 04:41:24;;;;;;;25.27;14.70;;;;;;;-145.18;100.00;46664.31;5051466;28;20061;-69
2023/03/18 04:43:49;;;;;;;25.27;14.37;;;;;;;-145.18;100.00;46666.25;5051213;28;20316;-69
2023/03/18 04:46:15;;;;;;;25.30;14.63;;;;;;;-145.18;100.00;46670.16;5051369;28;20048;-69
2023/03/18 04:48:41;;;;;;;29.10;15.20;;;;;;;-145.18;100.00;46664.31;5051239;28;20477;-70
2023/03/18 04:51:09;;;;;;;24.00;15.73;;;;;;;-145.18;100.00;46662.34;5051064;28;20064;-69
2023/03/18 04:53:36;;;;;;;29.27;14.90;;;;;;;-145.18;100.00;46658.44;5050989;28;20043;-69
2023/03/18 04:56:02;;;;;;;26.30;15.27;;;;;;;-145.18;100.00;46660.41;5050879;28;20289;-69
2023/03/18 04:58:28;;;;;;;25.40;15.60;;;;;;;-145.18;100.00;46658.44;5051168;28;20280;-69
2023/03/18 05:00:53;;;;;;;26.30;16.03;;;;;;;-145.18;100.00;46656.50;5050501;28;20274;-69
2023/03/18 05:03:19;;;;;;;24.47;14.93;;;;;;;-145.18;100.00;46662.34;5050766;28;20048;-69
2023/03/18 05:05:44;;;;;;;27.20;15.63;;;;;;;-145.18;100.00;46656.50;5050935;28;20037;-69
2023/03/18 05:08:11;;;;;;;25.70;14.53;;;;;;;-145.18;100.00;46660.41;5050847;28;20067;-69
2023/03/18 05:10:39;;;;;;;23.87;14.43;;;;;;;-145.18;100.00;46654.53;5050783;28;20037;-69
2023/03/18 05:13:05;;;;;;;24.83;15.27;;;;;;;-145.18;100.00;46652.59;5033035;28;20281;-69
2023/03/18 05:15:31;;;;;;;34.93;14.23;;;;;;;-145.18;100.00;46658.44;5050986;28;20289;-70
2023/03/18 05:17:56;;;;;;;27.63;15.23;;;;;;;-145.18;100.00;46660.41;5050343;28;20277;-69
2023/03/18 05:20:22;;;;;;;28.00;15.77;;;;;;;-145.18;100.00;46658.44;5050563;28;20071;-69
2023/03/18 05:22:47;;;;;;;23.63;15.37;;;;;;;-145.18;100.00;46662.34;5050601;28;20033;-69
2023/03/18 05:25:13;;;;;;;36.97;15.60;;;;;;;-145.18;100.00;46660.41;5050729;28;20037;-69
2023/03/18 05:27:39;;;;;;;29.10;15.83;;;;;;;-145.18;100.00;46660.41;5050431;28;20041;-69
2023/03/18 05:30:05;;;;;;;28.57;16.80;;;;;;;-145.18;100.00;46654.53;5050368;28;20029;-69
2023/03/18 05:32:31;;;;;;;29.53;16.90;;;;;;;-145.18;100.00;46664.31;5050245;28;20387;-69
2023/03/18 05:34:57;;;;;;;29.77;16.77;;;;;;;-145.18;100.00;46658.44;5050267;28;20650;-70
2023/03/18 05:37:23;;;;;;;28.10;17.80;;;;;;;-145.18;100.00;46654.53;5050390;28;20119;-70
2023/03/18 05:39:48;;;;;;;30.63;17.17;;;;;;;-145.18;100.00;46652.59;5050557;28;20370;-70
2023/03/18 05:42:14;;;;;;;30.10;17.73;;;;;;;-145.18;100.00;46652.59;5050347;28;20332;-70
2023/03/18 05:44:41;;;;;;;30.00;17.43;;;;;;;-145.18;100.00;46652.59;5050524;28;20059;-69
2023/03/18 05:47:07;;;;;;;33.37;17.37;;;;;;;-145.18;100.00;46652.59;5050560;28;20273;-70
2023/03/18 05:49:32;;;;;;;31.23;17.57;;;;;;;-145.18;100.00;46654.53;5050009;28;20750;-70
2023/03/18 05:51:58;;;;;;;28.70;17.87;;;;;;;-145.18;100.00;46656.50;5049143;28;20356;-69
2023/03/18 05:54:24;;;;;;;27.90;17.30;;;;;;;-145.18;100.00;46656.50;5049647;28;20025;-70
2023/03/18 05:56:51;;;;;;;33.10;16.80;;;;;;;-145.18;100.00;46654.53;5050184;28;20037;-69
2023/03/18 05:59:17;;;;;;;32.17;18.43;;;;;;;-145.18;100.00;46654.53;5049424;28;20037;-69
2023/03/18 06:01:43;;;;;;;30.47;18.23;;;;;;;-145.18;100.00;46654.53;5049909;28;20282;-69
2023/03/18 06:04:10;;;;;;;35.60;18.13;;;;;;;-145.18;100.00;46658.44;5032315;28;20286;-70
2023/03/18 06:06:39;;;;;;;33.27;18.33;;;;;;;-145.18;100.00;46656.50;5049696;28;20469;-70
2023/03/18 06:09:06;;;;;;;30.57;18.13;;;;;;;-145.18;100.00;46650.63;5049706;28;20270;-70
2023/03/18 06:11:31;;;;;;;32.90;19.60;;;;;;;-145.18;100.00;46652.59;5049062;28;20282;-70
2023/03/18 06:13:58;;;;;;;34.67;18.87;;;;;;;-145.18;100.00;46654.53;5049088;28;20266;-70
2023/03/18 06:16:24;;;;;;;34.30;18.73;;;;;;;-145.18;100.00;46652.59;5049597;28;20404;-70
2023/03/18 06:18:50;;;;;;;35.27;19.50;;;;;;;-145.18;100.00;46654.53;5049123;28;20274;-70
2023/03/18 06:21:16;;;;;;;36.33;20.40;;;;;;;-145.18;100.00;46656.50;5049553;28;20477;-71
2023/03/18 06:23:41;;;;;;;32.80;19.70;;;;;;;-145.18;100.00;46654.53;5049366;28;20086;-70
2023/03/18 06:26:07;;;;;;;37.90;20.37;;;;;;;-145.18;100.00;46656.50;5031278;28;20086;-70
2023/03/18 06:28:34;;;;;;;36.00;20.33;;;;;;;-145.18;100.00;46654.53;5038096;28;20041;-70
2023/03/18 06:31:00;;;;;;;40.40;21.23;;;;;;;-145.18;100.00;46654.53;5049562;28;20029;-70
2023/03/18 06:33:26;;;;;;;36.13;20.83;;;;;;;-145.18;100.00;46656.50;5049001;28;20336;-70
2023/03/18 06:35:53;;;;;;;35.63;21.43;;;;;;;-145.18;100.00;46656.50;5049159;28;20278;-70
2023/03/18 06:38:19;;;;;;;31.50;19.87;;;;;;;-145.18;100.00;46652.59;5017910;28;20044;-70
2023/03/18 06:40:46;;;;;;;38.47;21.23;;;;;;;-145.18;100.00;46654.53;5035390;28;20262;-70
2023/03/18 06:43:12;;;;;;;35.27;21.93;;;;;;;-145.18;100.00;46654.53;5049027;28;20353;-70
2023/03/18 06:45:37;;;;;;;36.83;21.07;;;;;;;-145.18;100.00;46656.50;5049423;28;20900;-70
2023/03/18 06:48:03;;;;;;;40.63;22.50;;;;;;;-145.18;100.00;46654.53;5048682;28;20029;-70
2023/03/18 06:50:30;;;;;;;37.87;21.07;;;;;;;-145.18;100.00;46654.53;5048741;28;20029;-70
2023/03/18 06:52:56;;;;;;;41.60;21.73;;;;;;;-145.18;100.00;46650.63;5047427;28;20068;-70
2023/03/18 06:55:22;;;;;;;36.23;21.00;;;;;;;-145.18;100.00;46654.53;5048943;28;20290;-70
2023/03/18 06:57:48;;;;;;;29.00;20.07;;;;;;;-145.18;100.00;46656.50;5048720;28;20032;-67
2023/03/18 07:00:14;;;;;;;38.27;19.43;;;;;;;-145.18;100.00;46654.53;5049175;28;20036;-67
2023/03/18 07:02:40;;;;;;;37.57;20.47;;;;;;;-145.18;100.00;46654.53;5048857;28;20041;-67
2023/03/18 07:05:07;;;;;;;34.77;19.13;;;;;;;-145.18;100.00;46656.50;5047996;28;20289;-67
2023/03/18 07:07:32;;;;;;;35.10;20.97;;;;;;;-145.18;100.00;46650.63;5048877;28;20284;-67
2023/03/18 07:09:58;;;;;;;37.83;21.17;;;;;;;-145.18;100.00;46646.72;5030201;28;20286;-67
2023/03/18 07:12:23;;;;;;;37.63;20.77;;;;;;;-145.18;100.00;46656.50;5048381;28;20037;-67
2023/03/18 07:14:48;;;;;;;37.40;21.40;;;;;;;-145.18;100.00;46650.63;5048541;28;20095;-66
2023/03/18 07:17:14;;;;;;;38.57;21.60;;;;;;;-145.18;100.00;46654.53;5048954;28;20095;-67
2023/03/18 07:19:40;;;;;;;37.93;21.27;;;;;;;-145.18;100.00;46646.72;5059515;28;20549;-67
2023/03/18 07:22:06;;;;;;;34.97;21.10;;;;;;;-145.18;100.00;46648.69;5057958;28;20028;-67
2023/03/18 07:24:31;;;;;;;41.77;21.27;;;;;;;-145.18;100.00;46646.72;5052043;28;20278;-67
2023/03/18 07:26:57;;;;;;;36.53;21.53;;;;;;;-145.18;100.00;46646.72;5048387;28;20037;-67
2023/03/18 07:29:23;;;;;;;35.20;21.53;;;;;;;-145.18;100.00;46646.72;5034552;28;20049;-67
2023/03/18 07:31:48;;;;;;;35.27;20.57;;;;;;;-145.18;100.00;46648.69;5051794;28;20695;-67
2023/03/18 07:34:14;;;;;;;33.53;20.60;;;;;;;-145.18;100.00;46650.63;5051976;28;20120;-67
2023/03/18 07:36:40;;;;;;;33.47;20.60;;;;;;;-145.18;100.00;46650.63;5052229;28;20044;-67
2023/03/18 07:39:07;;;;;;;36.27;21.60;;;;;;;-145.18;100.00;46652.59;5051912;28;20033;-67
2023/03/18 07:41:32;;;;;;;34.13;21.03;;;;;;;-145.18;100.00;46644.78;5052130;28;20626;-67
2023/03/18 07:43:58;;;;;;;33.23;20.37;;;;;;;-145.18;100.00;46650.63;5051824;28;20277;-67
2023/03/18 07:46:24;;;;;;;35.40;21.30;;;;;;;-145.18;100.00;46652.59;5034214;28;20060;-67
2023/03/18 07:48:50;;;;;;;33.13;21.23;;;;;;;-145.18;100.00;46654.53;5052090;28;20044;-67
2023/03/18 07:51:16;;;;;;;34.93;20.77;;;;;;;-145.18;100.00;46656.50;5051929;28;20032;-67
2023/03/18 07:53:42;;;;;;;32.40;20.87;;;;;;;-145.18;100.00;46656.50;5051589;28;20033;-67
2023/03/18 07:56:08;;;;;;;37.77;22.20;;;;;;;-145.18;100.00;46658.44;5039562;28;20044;-67
2023/03/18 07:58:34;;;;;;;37.37;19.57;;;;;;;-145.18;100.00;46660.41;5051621;28;20116;-67
2023/03/18 08:01:00;;;;;;;30.27;19.00;;;;;;;-145.18;100.00;46658.44;5051439;28;20536;-67
2023/03/18 08:03:26;;;;;;;32.67;19.57;;;;;;;-145.18;100.00;46664.31;5050849;28;20528;-67
2023/03/18 08:05:52;;;;;;;30.10;18.80;;;;;;;-145.18;100.00;46664.31;5051828;28;20041;-67
2023/03/18 08:08:17;;;;;;;28.57;18.23;;;;;;;-145.18;100.00;46666.25;5033227;28;20715;-67
2023/03/18 08:10:43;;;;;;;32.90;18.03;;;;;;;-145.18;100.00;46666.25;5050590;28;20036;-67
2023/03/18 08:13:08;;;;;;;26.97;17.43;;;;;;;-145.18;100.00;46664.31;5050653;28;20388;-67
2023/03/18 08:15:34;;;;;;;29.50;17.17;;;;;;;-145.18;100.00;46670.16;5051482;28;20045;-67
2023/03/18 08:17:59;;;;;;;27.23;17.17;;;;;;;-145.18;100.00;46672.13;5050777;28;20580;-67
2023/03/18 08:20:25;;;;;;;25.33;15.70;;;;;;;-145.18;100.00;46672.13;5051292;28;20040;-67
2023/03/18 08:22:50;;;;;;;23.27;14.90;;;;;;;-145.18;100.00;46670.16;5050893;28;20087;-67
2023/03/18 08:25:16;;;;;;;24.10;16.43;;;;;;;-145.18;100.00;46670.16;5051186;28;20065;-67
2023/03/18 08:27:41;;;;;;;25.60;15.37;;;;;;;-145.18;100.00;46672.13;5050435;28;20496;-67
2023/03/18 08:30:08;;;;;;;22.33;14.93;;;;;;;-145.18;100.00;46670.16;5050701;28;20409;-67
2023/03/18 08:32:34;;;;;;;25.57;15.53;;;;;;;-145.18;100.00;46670.16;5051083;28;20454;-67
2023/03/18 08:35:00;;;;;;;24.77;15.20;;;;;;;-145.18;100.00;46670.16;5050223;28;20068;-67
2023/03/18 08:37:26;;;;;;;21.30;14.27;;;;;;;-145.18;100.00;46672.13;5050742;28;20100;-67
2023/03/18 08:39:52;;;;;;;21.73;14.00;;;;;;;-145.18;100.00;46674.06;5050733;28;20029;-67
2023/03/18 08:42:18;;;;;;;21.63;14.60;;;;;;;-145.18;100.00;46672.13;5032742;28;20039;-67
2023/03/18 08:44:43;;;;;;;25.57;14.80;;;;;;;-145.18;100.00;46676.03;5050073;28;20515;-67
2023/03/18 08:47:09;;;;;;;21.20;14.37;;;;;;;-145.18;100.00;46672.13;5050450;28;20064;-67
2023/03/18 08:49:35;;;;;;;21.63;14.20;;;;;;;-145.18;100.00;46674.06;5055799;28;20036;-67
2023/03/18 08:52:01;;;;;;;22.37;14.33;;;;;;;-145.18;100.00;46672.13;5069332;28;20033;-67
2023/03/18 08:54:27;;;;;;;21.63;13.30;;;;;;;-145.18;100.00;46676.03;5049265;28;20041;-67
2023/03/18 08:56:54;;;;;;;23.10;14.10;;;;;;;-145.18;100.00;46672.13;5049500;28;20401;-67
2023/03/18 08:59:20;;;;;;;23.53;14.20;;;;;;;-145.18;100.00;46672.13;5049460;28;20037;-67
2023/03/18 09:01:46;;;;;;;19.33;13.63;;;;;;;-145.18;100.00;46668.22;5050310;28;20662;-67
2023/03/18 09:04:12;;;;;;;23.23;14.40;;;;;;;-145.18;100.00;46672.13;5001203;28;20497;-67
2023/03/18 09:06:37;;;;;;;22.77;14.20;;;;;;;-145.18;100.00;46672.13;4988648;28;20062;-67
2023/03/18 09:09:03;;;;;;;21.53;13.13;;;;;;;-145.18;100.00;46672.13;4971588;28;20056;-67
2023/03/18 09:11:28;;;;;;;25.47;14.33;;;;;;;-145.18;100.00;46672.13;4988826;28;20138;-67
2023/03/18 09:13:54;;;;;;;22.83;13.07;;;;;;;-145.18;100.00;46674.06;4987662;28;20632;-67
2023/03/18 09:16:19;;;;;;;19.77;13.37;;;;;;;-145.18;100.00;46672.13;4988536;28;20046;-67
2023/03/18 09:18:45;;;;;;;24.57;14.97;;;;;;;-145.18;100.00;46672.13;4987258;28;20560;-67
2023/03/18 09:21:11;;;;;;;19.77;12.63;;;;;;;-145.18;100.00;46677.97;4971943;28;20046;-67
2023/03/18 09:23:36;;;;;;;18.60;11.93;;;;;;;-145.18;100.00;46677.97;4987727;28;20113;-67
2023/03/18 09:26:02;;;;;;;18.43;12.03;;;;;;;-145.18;100.00;46676.03;4988022;28;20052;-67
2023/03/18 09:28:28;;;;;;;19.40;12.60;;;;;;;-145.18;100.00;46679.94;4987757;28;20046;-67
2023/03/18 09:30:54;;;;;;;28.93;17.73;;;;;;;-145.18;100.00;46676.03;4987712;28;20495;-67
2023/03/18 09:33:19;;;;;;;25.60;15.00;;;;;;;-145.18;100.00;46670.16;4987463;28;20050;-67
2023/03/18 09:35:45;;;;;;;21.73;15.20;;;;;;;-145.18;100.00;46668.22;5003758;28;20144;-67
2023/03/18 09:38:21;;;;;;;26.43;15.57;;;;;;;-145.18;100.00;46656.50;5017962;28;20124;-66
2023/03/18 09:41:00;;;;;;;20.70;12.23;;;;;;;-145.18;100.00;46644.78;5027780;28;20397;-67
2023/03/18 09:43:29;;;;;;;17.80;12.40;;;;;;;-145.18;100.00;46625.22;5018671;28;20091;-67
2023/03/18 09:46:16;;;;;;;25.33;11.93;;;;;;;-145.18;100.00;46590.06;5028326;28;20036;-67
2023/03/18 09:49:13;;;;;;;19.10;11.47;;;;;;;-145.18;100.00;46572.50;5027657;28;20040;-67
2023/03/18 09:51:59;;;;;;;22.00;12.10;;;;;;;-145.18;100.00;46551.00;5028347;28;20030;-67
2023/03/18 09:54:35;;;;;;;17.00;11.05;;;;;;;-145.18;100.00;46545.16;5028416;28;20037;-67
2023/03/18 09:57:02;;;;;;;18.60;10.73;;;;;;;-145.18;100.00;46562.72;5027844;28;20501;-67
2023/03/18 09:59:42;;;;;;;16.70;10.33;;;;;;;-145.18;100.00;46566.63;5027985;28;20408;-67
2023/03/18 10:02:35;;;;;;;17.10;10.73;;;;;;;-145.18;100.00;46576.41;5029732;28;20036;-67
2023/03/18 10:05:09;;;;;;;16.50;10.83;;;;;;;-145.18;100.00;46572.50;5040876;28;20060;-67
2023/03/18 10:07:43;;;;;;;16.00;9.60;;;;;;;-145.18;100.00;46582.25;5049212;28;20029;-67
2023/03/18 10:10:23;;;;;;;15.73;10.90;;;;;;;-145.18;100.00;46588.13;5049484;28;20036;-67
2023/03/18 10:13:01;;;;;;;17.63;10.10;;;;;;;-145.18;100.00;46590.06;5049190;28;20141;-67
2023/03/18 10:15:35;;;;;;;17.50;9.43;;;;;;;-145.18;100.00;46576.41;5049303;28;20389;-67
2023/03/18 10:18:11;;;;;;;19.37;10.53;;;;;;;-145.18;100.00;46595.94;5049024;28;20136;-67
2023/03/18 10:21:00;;;;;;;;;;;;;;;-145.18;100.00;46586.16;5031338;28;20501;-67
2023/03/18 10:23:50;;;;;;;15.43;8.87;;;;;;;-145.18;100.00;46590.06;5011242;28;19962;-67
2023/03/18 10:26:25;;;;;;;16.20;10.40;;;;;;;-145.18;100.00;46592.03;5049213;28;20041;-67
2023/03/18 10:29:03;;;;;;;12.93;8.20;;;;;;;-145.18;100.00;46588.13;5048856;28;20071;-67
2023/03/18 10:32:01;;;;;;;15.03;8.73;;;;;;;-145.18;100.00;46590.06;5049247;28;20029;-67
2023/03/18 10:34:37;;;;;;;13.00;7.37;;;;;;;-145.18;100.00;46599.84;5049101;28;20445;-67
2023/03/18 10:37:16;;;;;;;11.20;7.17;;;;;;;-145.18;100.00;46613.50;5049138;28;20516;-66
2023/03/18 10:39:44;;;;;;;11.87;6.07;;;;;;;-145.18;100.00;46605.69;5049048;28;20040;-67
2023/03/18 10:42:26;;;;;;;23.37;10.73;;;;;;;-145.18;100.00;46635.00;5031709;28;20496;-67
2023/03/18 10:44:54;;;;;;;13.27;6.87;;;;;;;-145.18;100.00;46625.22;5048943;28;20056;-66
2023/03/18 10:47:35;;;;;;;15.93;5.90;;;;;;;-145.18;100.00;46631.09;5049293;28;20025;-66
2023/03/18 10:50:22;;;;;;;10.13;5.07;;;;;;;-145.18;100.00;46613.50;5048554;28;20029;-67
2023/03/18 10:52:55;;;;;;;8.73;5.47;;;;;;;-145.18;100.00;46609.59;5050765;28;20115;-67
2023/03/18 10:55:28;;;;;;;11.73;6.53;;;;;;;-145.18;100.00;46599.84;5052694;28;20025;-67
2023/03/18 10:57:53;;;;;;;15.57;7.87;;;;;;;-145.18;100.00;46611.56;5052693;28;20044;-67
2023/03/18 11:00:34;;;;;;;12.33;5.67;;;;;;;-145.18;100.00;46613.50;5052797;28;20481;-67